PWSweather.com
Personal Weather Stations
Station Observations
KMNHANSK2
Thompson Farms, Hanska, MN 56041

Thompson FarmsHanska, MN 56041

Lat: 44.170119, Lon: -94.381619

Elevation: 1004

Station Type: Wireless Davis Instruments Vantage Pro2 Plus

http://www.somnwx.com/thompsonfarms/

High Low Average
Temperature 48.8°F9.3°F 28.7°F-1.8°F 35.6°F2.0°F
Dew Point 38.7°F3.7°F 26.4°F-3.1°F 31.6°F-0.2°F
Winds 15.7 mph S25.3 mph S 0.1 mph 0.2 mph 5.5 mph 8.9 mph
Wind Gusts 24.0 mph38.6 mph 1.0 mph1.6 mph 9.2 mph14.8 mph
Humidity 92% 67% 86%
Pressure 29.79 in1008.80 in 29.53 in1000.00 in -
Precipitation 0.00 in0.00 in - -
Hour Temp Dew Point Humidity Winds Wind Gusts Pressure Precip Precip Rate Daily Precip Total
12:00 AM 31.4°F-0.3°C 29.1°F-1.6°C 91% 5.5 mph SSW8.9 kmh SSW 7.0 mph11.3 kmh 29.79 in1008.8 mb 0.00 in0.0 mm 0.00 in0.0 mm 0.00 in0.0 mm
12:05 AM 31.6°F-0.2°C 29.3°F-1.5°C 91% 5.7 mph S9.2 kmh S 7.0 mph11.3 kmh 29.79 in1008.8 mb 0.00 in0.0 mm 0.00 in0.0 mm 0.00 in0.0 mm
12:10 AM 31.7°F-0.2°C 29.1°F-1.6°C 90% 5.3 mph SSW8.5 kmh SSW 7.0 mph11.3 kmh 29.79 in1008.8 mb 0.00 in0.0 mm 0.00 in0.0 mm 0.00 in0.0 mm
12:15 AM 31.7°F-0.2°C 29.1°F-1.6°C 90% 4.7 mph SSW7.6 kmh SSW 7.0 mph11.3 kmh 29.79 in1008.8 mb 0.00 in0.0 mm 0.00 in0.0 mm 0.00 in0.0 mm
12:20 AM 31.5°F-0.3°C 28.9°F-1.7°C 90% 4.9 mph SSW7.9 kmh SSW 7.0 mph11.3 kmh 29.79 in1008.8 mb 0.00 in0.0 mm 0.00 in0.0 mm 0.00 in0.0 mm
12:25 AM 31.3°F-0.4°C 28.7°F-1.8°C 90% 5.5 mph SW8.9 kmh SW 8.0 mph12.9 kmh 29.79 in1008.8 mb 0.00 in0.0 mm 0.00 in0.0 mm 0.00 in0.0 mm
12:30 AM 31.0°F-0.6°C 28.4°F-2.0°C 90% 5.0 mph SSW8.0 kmh SSW 8.0 mph12.9 kmh 29.79 in1008.8 mb 0.00 in0.0 mm 0.00 in0.0 mm 0.00 in0.0 mm
12:35 AM 30.9°F-0.6°C 28.3°F-2.1°C 90% 4.8 mph SSW7.7 kmh SSW 7.0 mph11.3 kmh 29.79 in1008.8 mb 0.00 in0.0 mm 0.00 in0.0 mm 0.00 in0.0 mm
12:40 AM 30.9°F-0.6°C 28.3°F-2.1°C 90% 5.2 mph SSW8.4 kmh SSW 7.0 mph11.3 kmh 29.78 in1008.5 mb 0.00 in0.0 mm 0.00 in0.0 mm 0.00 in0.0 mm
12:45 AM 31.0°F-0.6°C 28.4°F-2.0°C 90% 5.5 mph SSW8.9 kmh SSW 7.0 mph11.3 kmh 29.78 in1008.5 mb 0.00 in0.0 mm 0.00 in0.0 mm 0.00 in0.0 mm
12:50 AM 31.0°F-0.6°C 28.4°F-2.0°C 90% 5.0 mph SSW8.0 kmh SSW 7.0 mph11.3 kmh 29.78 in1008.5 mb 0.00 in0.0 mm 0.00 in0.0 mm 0.00 in0.0 mm
12:55 AM 30.8°F-0.7°C 28.2°F-2.1°C 90% 4.3 mph SSW6.9 kmh SSW 7.0 mph11.3 kmh 29.78 in1008.5 mb 0.00 in0.0 mm 0.00 in0.0 mm 0.00 in0.0 mm
01:00 AM 30.8°F-0.7°C 28.2°F-2.1°C 90% 4.3 mph SSW6.9 kmh SSW 6.0 mph9.7 kmh 29.78 in1008.5 mb 0.00 in0.0 mm 0.00 in0.0 mm 0.00 in0.0 mm
01:05 AM 30.8°F-0.7°C 28.5°F-1.9°C 91% 5.0 mph SSW8.0 kmh SSW 7.0 mph11.3 kmh 29.77 in1008.1 mb 0.00 in0.0 mm 0.00 in0.0 mm 0.00 in0.0 mm
01:10 AM 30.8°F-0.7°C 28.5°F-1.9°C 91% 4.5 mph SSW7.2 kmh SSW 7.0 mph11.3 kmh 29.78 in1008.5 mb 0.00 in0.0 mm 0.00 in0.0 mm 0.00 in0.0 mm
01:15 AM 30.9°F-0.6°C 28.6°F-1.9°C 91% 5.1 mph S8.2 kmh S 7.0 mph11.3 kmh 29.77 in1008.1 mb 0.00 in0.0 mm 0.00 in0.0 mm 0.00 in0.0 mm
01:20 AM 30.9°F-0.6°C 28.6°F-1.9°C 91% 4.7 mph S7.6 kmh S 7.0 mph11.3 kmh 29.77 in1008.1 mb 0.00 in0.0 mm 0.00 in0.0 mm 0.00 in0.0 mm
01:25 AM 31.0°F-0.6°C 28.7°F-1.8°C 91% 5.7 mph S9.2 kmh S 8.0 mph12.9 kmh 29.76 in1007.8 mb 0.00 in0.0 mm 0.00 in0.0 mm 0.00 in0.0 mm
01:30 AM 31.0°F-0.6°C 28.7°F-1.8°C 91% 6.1 mph S9.8 kmh S 9.0 mph14.5 kmh 29.76 in1007.8 mb 0.00 in0.0 mm 0.00 in0.0 mm 0.00 in0.0 mm
01:35 AM 31.0°F-0.6°C 28.7°F-1.8°C 91% 6.3 mph S10.1 kmh S 9.0 mph14.5 kmh 29.76 in1007.8 mb 0.00 in0.0 mm 0.00 in0.0 mm 0.00 in0.0 mm
01:40 AM 31.0°F-0.6°C 28.7°F-1.8°C 91% 7.0 mph S11.3 kmh S 9.0 mph14.5 kmh 29.77 in1008.1 mb 0.00 in0.0 mm 0.00 in0.0 mm 0.00 in0.0 mm
01:45 AM 31.0°F-0.6°C 28.7°F-1.8°C 91% 5.8 mph SSW9.3 kmh SSW 9.0 mph14.5 kmh 29.77 in1008.1 mb 0.00 in0.0 mm 0.00 in0.0 mm 0.00 in0.0 mm
01:50 AM 30.8°F-0.7°C 28.5°F-1.9°C 91% 5.6 mph S9.0 kmh S 8.0 mph12.9 kmh 29.76 in1007.8 mb 0.00 in0.0 mm 0.00 in0.0 mm 0.00 in0.0 mm
01:55 AM 30.5°F-0.8°C 27.9°F-2.3°C 90% 5.5 mph S8.9 kmh S 8.0 mph12.9 kmh 29.76 in1007.8 mb 0.00 in0.0 mm 0.00 in0.0 mm 0.00 in0.0 mm
02:00 AM 30.3°F-0.9°C 27.7°F-2.4°C 90% 6.5 mph S10.5 kmh S 9.0 mph14.5 kmh 29.76 in1007.8 mb 0.00 in0.0 mm 0.00 in0.0 mm 0.00 in0.0 mm
02:05 AM 30.3°F-0.9°C 28.0°F-2.2°C 91% 6.7 mph S10.8 kmh S 9.0 mph14.5 kmh 29.75 in1007.5 mb 0.00 in0.0 mm 0.00 in0.0 mm 0.00 in0.0 mm
02:10 AM 30.2°F-1.0°C 27.9°F-2.3°C 91% 6.7 mph S10.8 kmh S 9.0 mph14.5 kmh 29.76 in1007.8 mb 0.00 in0.0 mm 0.00 in0.0 mm 0.00 in0.0 mm
02:15 AM 30.3°F-0.9°C 28.0°F-2.2°C 91% 6.2 mph S10.0 kmh S 9.0 mph14.5 kmh 29.75 in1007.5 mb 0.00 in0.0 mm 0.00 in0.0 mm 0.00 in0.0 mm
02:20 AM 30.3°F-0.9°C 28.0°F-2.2°C 91% 5.8 mph S9.3 kmh S 9.0 mph14.5 kmh 29.75 in1007.5 mb 0.00 in0.0 mm 0.00 in0.0 mm 0.00 in0.0 mm
02:25 AM 30.3°F-0.9°C 28.0°F-2.2°C 91% 5.4 mph S8.7 kmh S 8.0 mph12.9 kmh 29.76 in1007.8 mb 0.00 in0.0 mm 0.00 in0.0 mm 0.00 in0.0 mm
02:30 AM 30.3°F-0.9°C 28.0°F-2.2°C 91% 4.2 mph S6.8 kmh S 7.0 mph11.3 kmh 29.76 in1007.8 mb 0.00 in0.0 mm 0.00 in0.0 mm 0.00 in0.0 mm
02:35 AM 30.2°F-1.0°C 27.9°F-2.3°C 91% 4.1 mph S6.6 kmh S 7.0 mph11.3 kmh 29.75 in1007.5 mb 0.00 in0.0 mm 0.00 in0.0 mm 0.00 in0.0 mm
02:40 AM 30.1°F-1.1°C 27.8°F-2.3°C 91% 3.9 mph S6.3 kmh S 7.0 mph11.3 kmh 29.75 in1007.5 mb 0.00 in0.0 mm 0.00 in0.0 mm 0.00 in0.0 mm
02:45 AM 30.1°F-1.1°C 27.8°F-2.3°C 91% 5.2 mph S8.4 kmh S 7.0 mph11.3 kmh 29.75 in1007.5 mb 0.00 in0.0 mm 0.00 in0.0 mm 0.00 in0.0 mm
02:50 AM 30.2°F-1.0°C 27.9°F-2.3°C 91% 5.0 mph S8.0 kmh S 8.0 mph12.9 kmh 29.75 in1007.5 mb 0.00 in0.0 mm 0.00 in0.0 mm 0.00 in0.0 mm
02:55 AM 30.3°F-0.9°C 28.0°F-2.2°C 91% 4.9 mph S7.9 kmh S 8.0 mph12.9 kmh 29.74 in1007.1 mb 0.00 in0.0 mm 0.00 in0.0 mm 0.00 in0.0 mm
03:00 AM 30.1°F-1.1°C 27.8°F-2.3°C 91% 5.3 mph S8.5 kmh S 8.0 mph12.9 kmh 29.74 in1007.1 mb 0.00 in0.0 mm 0.00 in0.0 mm 0.00 in0.0 mm
03:05 AM 30.0°F-1.1°C 27.7°F-2.4°C 91% 6.3 mph S10.1 kmh S 9.0 mph14.5 kmh 29.74 in1007.1 mb 0.00 in0.0 mm 0.00 in0.0 mm 0.00 in0.0 mm
03:10 AM 30.1°F-1.1°C 28.1°F-2.2°C 92% 6.2 mph S10.0 kmh S 9.0 mph14.5 kmh 29.74 in1007.1 mb 0.00 in0.0 mm 0.00 in0.0 mm 0.00 in0.0 mm
03:15 AM 30.2°F-1.0°C 28.2°F-2.1°C 92% 6.7 mph S10.8 kmh S 9.0 mph14.5 kmh 29.74 in1007.1 mb 0.00 in0.0 mm 0.00 in0.0 mm 0.00 in0.0 mm
03:20 AM 30.3°F-0.9°C 28.0°F-2.2°C 91% 6.6 mph S10.6 kmh S 9.0 mph14.5 kmh 29.73 in1006.8 mb 0.00 in0.0 mm 0.00 in0.0 mm 0.00 in0.0 mm
03:25 AM 30.3°F-0.9°C 28.0°F-2.2°C 91% 5.7 mph S9.2 kmh S 9.0 mph14.5 kmh 29.74 in1007.1 mb 0.00 in0.0 mm 0.00 in0.0 mm 0.00 in0.0 mm
03:30 AM 30.2°F-1.0°C 27.9°F-2.3°C 91% 4.6 mph S7.4 kmh S 8.0 mph12.9 kmh 29.73 in1006.8 mb 0.00 in0.0 mm 0.00 in0.0 mm 0.00 in0.0 mm
03:35 AM 30.1°F-1.1°C 27.8°F-2.3°C 91% 3.4 mph S5.5 kmh S 6.0 mph9.7 kmh 29.74 in1007.1 mb 0.00 in0.0 mm 0.00 in0.0 mm 0.00 in0.0 mm
03:40 AM 30.0°F-1.1°C 27.7°F-2.4°C 91% 3.9 mph S6.3 kmh S 6.0 mph9.7 kmh 29.73 in1006.8 mb 0.00 in0.0 mm 0.00 in0.0 mm 0.00 in0.0 mm
03:45 AM 30.0°F-1.1°C 27.7°F-2.4°C 91% 4.8 mph S7.7 kmh S 7.0 mph11.3 kmh 29.73 in1006.8 mb 0.00 in0.0 mm 0.00 in0.0 mm 0.00 in0.0 mm
03:50 AM 30.1°F-1.1°C 27.8°F-2.3°C 91% 5.5 mph S8.9 kmh S 8.0 mph12.9 kmh 29.72 in1006.4 mb 0.00 in0.0 mm 0.00 in0.0 mm 0.00 in0.0 mm
03:55 AM 30.2°F-1.0°C 28.2°F-2.1°C 92% 6.1 mph S9.8 kmh S 9.0 mph14.5 kmh 29.72 in1006.4 mb 0.00 in0.0 mm 0.00 in0.0 mm 0.00 in0.0 mm
04:00 AM 30.4°F-0.9°C 28.4°F-2.0°C 92% 6.3 mph S10.1 kmh S 9.0 mph14.5 kmh 29.72 in1006.4 mb 0.00 in0.0 mm 0.00 in0.0 mm 0.00 in0.0 mm
04:05 AM 30.5°F-0.8°C 28.2°F-2.1°C 91% 6.5 mph S10.5 kmh S 9.0 mph14.5 kmh 29.72 in1006.4 mb 0.00 in0.0 mm 0.00 in0.0 mm 0.00 in0.0 mm
04:10 AM 30.6°F-0.8°C 28.6°F-1.9°C 92% 6.4 mph S10.3 kmh S 9.0 mph14.5 kmh 29.72 in1006.4 mb 0.00 in0.0 mm 0.00 in0.0 mm 0.00 in0.0 mm
04:15 AM 30.6°F-0.8°C 28.3°F-2.1°C 91% 6.3 mph S10.1 kmh S 9.0 mph14.5 kmh 29.71 in1006.1 mb 0.00 in0.0 mm 0.00 in0.0 mm 0.00 in0.0 mm
04:20 AM 30.6°F-0.8°C 28.3°F-2.1°C 91% 6.0 mph S9.7 kmh S 9.0 mph14.5 kmh 29.71 in1006.1 mb 0.00 in0.0 mm 0.00 in0.0 mm 0.00 in0.0 mm
04:25 AM 30.6°F-0.8°C 28.3°F-2.1°C 91% 4.9 mph S7.9 kmh S 9.0 mph14.5 kmh 29.71 in1006.1 mb 0.00 in0.0 mm 0.00 in0.0 mm 0.00 in0.0 mm
04:30 AM 30.5°F-0.8°C 28.2°F-2.1°C 91% 6.1 mph S9.8 kmh S 8.0 mph12.9 kmh 29.71 in1006.1 mb 0.00 in0.0 mm 0.00 in0.0 mm 0.00 in0.0 mm
04:35 AM 30.4°F-0.9°C 28.1°F-2.2°C 91% 5.2 mph S8.4 kmh S 8.0 mph12.9 kmh 29.71 in1006.1 mb 0.00 in0.0 mm 0.00 in0.0 mm 0.00 in0.0 mm
04:40 AM 30.2°F-1.0°C 27.9°F-2.3°C 91% 5.9 mph S9.5 kmh S 8.0 mph12.9 kmh 29.71 in1006.1 mb 0.00 in0.0 mm 0.00 in0.0 mm 0.00 in0.0 mm
04:45 AM 29.9°F-1.2°C 27.3°F-2.6°C 90% 5.6 mph S9.0 kmh S 7.0 mph11.3 kmh 29.70 in1005.8 mb 0.00 in0.0 mm 0.00 in0.0 mm 0.00 in0.0 mm
04:50 AM 29.6°F-1.3°C 27.0°F-2.8°C 90% 5.5 mph SSE8.9 kmh SSE 7.0 mph11.3 kmh 29.70 in1005.8 mb 0.00 in0.0 mm 0.00 in0.0 mm 0.00 in0.0 mm
04:55 AM 29.3°F-1.5°C 26.7°F-2.9°C 90% 6.0 mph S9.7 kmh S 7.0 mph11.3 kmh 29.70 in1005.8 mb 0.00 in0.0 mm 0.00 in0.0 mm 0.00 in0.0 mm
05:00 AM 29.1°F-1.6°C 26.8°F-2.9°C 91% 6.0 mph S9.7 kmh S 9.0 mph14.5 kmh 29.69 in1005.4 mb 0.00 in0.0 mm 0.00 in0.0 mm 0.00 in0.0 mm
05:05 AM 28.9°F-1.7°C 26.6°F-3.0°C 91% 6.1 mph S9.8 kmh S 9.0 mph14.5 kmh 29.70 in1005.8 mb 0.00 in0.0 mm 0.00 in0.0 mm 0.00 in0.0 mm
05:10 AM 28.8°F-1.8°C 26.5°F-3.1°C 91% 6.3 mph S10.1 kmh S 9.0 mph14.5 kmh 29.69 in1005.4 mb 0.00 in0.0 mm 0.00 in0.0 mm 0.00 in0.0 mm
05:15 AM 28.7°F-1.8°C 26.4°F-3.1°C 91% 6.4 mph S10.3 kmh S 8.0 mph12.9 kmh 29.69 in1005.4 mb 0.00 in0.0 mm 0.00 in0.0 mm 0.00 in0.0 mm
05:20 AM 28.7°F-1.8°C 26.4°F-3.1°C 91% 6.8 mph S10.9 kmh S 9.0 mph14.5 kmh 29.69 in1005.4 mb 0.00 in0.0 mm 0.00 in0.0 mm 0.00 in0.0 mm
05:25 AM 28.7°F-1.8°C 26.7°F-2.9°C 92% 7.0 mph S11.3 kmh S 9.0 mph14.5 kmh 29.68 in1005.1 mb 0.00 in0.0 mm 0.00 in0.0 mm 0.00 in0.0 mm
05:30 AM 28.8°F-1.8°C 26.8°F-2.9°C 92% 7.2 mph S11.6 kmh S 10.0 mph16.1 kmh 29.68 in1005.1 mb 0.00 in0.0 mm 0.00 in0.0 mm 0.00 in0.0 mm
05:35 AM 28.9°F-1.7°C 26.9°F-2.8°C 92% 7.2 mph S11.6 kmh S 10.0 mph16.1 kmh 29.68 in1005.1 mb 0.00 in0.0 mm 0.00 in0.0 mm 0.00 in0.0 mm
05:40 AM 29.2°F-1.6°C 27.2°F-2.7°C 92% 8.0 mph S12.9 kmh S 12.0 mph19.3 kmh 29.68 in1005.1 mb 0.00 in0.0 mm 0.00 in0.0 mm 0.00 in0.0 mm
05:45 AM 29.4°F-1.4°C 27.4°F-2.6°C 92% 8.6 mph S13.8 kmh S 12.0 mph19.3 kmh 29.67 in1004.7 mb 0.00 in0.0 mm 0.00 in0.0 mm 0.00 in0.0 mm
05:50 AM 29.6°F-1.3°C 27.6°F-2.4°C 92% 8.4 mph S13.5 kmh S 12.0 mph19.3 kmh 29.67 in1004.7 mb 0.00 in0.0 mm 0.00 in0.0 mm 0.00 in0.0 mm
05:55 AM 29.7°F-1.3°C 27.7°F-2.4°C 92% 8.7 mph S14.0 kmh S 12.0 mph19.3 kmh 29.66 in1004.4 mb 0.00 in0.0 mm 0.00 in0.0 mm 0.00 in0.0 mm
06:00 AM 29.8°F-1.2°C 27.8°F-2.3°C 92% 8.9 mph S14.3 kmh S 13.0 mph20.9 kmh 29.66 in1004.4 mb 0.00 in0.0 mm 0.00 in0.0 mm 0.00 in0.0 mm
06:05 AM 29.8°F-1.2°C 27.8°F-2.3°C 92% 8.6 mph S13.8 kmh S 13.0 mph20.9 kmh 29.66 in1004.4 mb 0.00 in0.0 mm 0.00 in0.0 mm 0.00 in0.0 mm
06:10 AM 29.9°F-1.2°C 27.9°F-2.3°C 92% 9.5 mph S15.3 kmh S 12.0 mph19.3 kmh 29.66 in1004.4 mb 0.00 in0.0 mm 0.00 in0.0 mm 0.00 in0.0 mm
06:15 AM 29.9°F-1.2°C 27.6°F-2.4°C 91% 9.6 mph S15.4 kmh S 15.0 mph24.1 kmh 29.65 in1004.1 mb 0.00 in0.0 mm 0.00 in0.0 mm 0.00 in0.0 mm
06:20 AM 29.9°F-1.2°C 27.9°F-2.3°C 92% 9.9 mph S15.9 kmh S 15.0 mph24.1 kmh 29.65 in1004.1 mb 0.00 in0.0 mm 0.00 in0.0 mm 0.00 in0.0 mm
06:25 AM 29.7°F-1.3°C 27.4°F-2.6°C 91% 9.8 mph S15.8 kmh S 14.0 mph22.5 kmh 29.65 in1004.1 mb 0.00 in0.0 mm 0.00 in0.0 mm 0.00 in0.0 mm
06:30 AM 29.6°F-1.3°C 27.3°F-2.6°C 91% 9.4 mph S15.1 kmh S 14.0 mph22.5 kmh 29.65 in1004.1 mb 0.00 in0.0 mm 0.00 in0.0 mm 0.00 in0.0 mm
06:35 AM 29.6°F-1.3°C 27.3°F-2.6°C 91% 9.7 mph S15.6 kmh S 14.0 mph22.5 kmh 29.65 in1004.1 mb 0.00 in0.0 mm 0.00 in0.0 mm 0.00 in0.0 mm
06:40 AM 29.6°F-1.3°C 27.3°F-2.6°C 91% 9.4 mph S15.1 kmh S 15.0 mph24.1 kmh 29.65 in1004.1 mb 0.00 in0.0 mm 0.00 in0.0 mm 0.00 in0.0 mm
06:45 AM 29.5°F-1.4°C 27.2°F-2.7°C 91% 8.8 mph S14.2 kmh S 15.0 mph24.1 kmh 29.65 in1004.1 mb 0.00 in0.0 mm 0.00 in0.0 mm 0.00 in0.0 mm
06:50 AM 29.4°F-1.4°C 27.1°F-2.7°C 91% 8.9 mph S14.3 kmh S 12.0 mph19.3 kmh 29.64 in1003.7 mb 0.00 in0.0 mm 0.00 in0.0 mm 0.00 in0.0 mm
06:55 AM 29.4°F-1.4°C 27.1°F-2.7°C 91% 9.2 mph S14.8 kmh S 13.0 mph20.9 kmh 29.64 in1003.7 mb 0.00 in0.0 mm 0.00 in0.0 mm 0.00 in0.0 mm
07:00 AM 29.4°F-1.4°C 27.1°F-2.7°C 91% 8.9 mph S14.3 kmh S 15.0 mph24.1 kmh 29.64 in1003.7 mb 0.00 in0.0 mm 0.00 in0.0 mm 0.00 in0.0 mm
07:05 AM 29.5°F-1.4°C 27.2°F-2.7°C 91% 9.2 mph S14.8 kmh S 15.0 mph24.1 kmh 29.64 in1003.7 mb 0.00 in0.0 mm 0.00 in0.0 mm 0.00 in0.0 mm
07:10 AM 29.4°F-1.4°C 27.1°F-2.7°C 91% 8.3 mph S13.4 kmh S 13.0 mph20.9 kmh 29.64 in1003.7 mb 0.00 in0.0 mm 0.00 in0.0 mm 0.00 in0.0 mm
07:15 AM 29.3°F-1.5°C 27.0°F-2.8°C 91% 9.7 mph S15.6 kmh S 15.0 mph24.1 kmh 29.63 in1003.4 mb 0.00 in0.0 mm 0.00 in0.0 mm 0.00 in0.0 mm
07:20 AM 29.3°F-1.5°C 27.0°F-2.8°C 91% 11.0 mph S17.7 kmh S 15.0 mph24.1 kmh 29.63 in1003.4 mb 0.00 in0.0 mm 0.00 in0.0 mm 0.00 in0.0 mm
07:25 AM 29.3°F-1.5°C 27.0°F-2.8°C 91% 11.8 mph S19.0 kmh S 15.0 mph24.1 kmh 29.63 in1003.4 mb 0.00 in0.0 mm 0.00 in0.0 mm 0.00 in0.0 mm
07:30 AM 29.4°F-1.4°C 27.1°F-2.7°C 91% 11.6 mph S18.7 kmh S 16.0 mph25.7 kmh 29.63 in1003.4 mb 0.00 in0.0 mm 0.00 in0.0 mm 0.00 in0.0 mm
07:35 AM 29.3°F-1.5°C 27.0°F-2.8°C 91% 11.2 mph S18.0 kmh S 16.0 mph25.7 kmh 29.63 in1003.4 mb 0.00 in0.0 mm 0.00 in0.0 mm 0.00 in0.0 mm
07:40 AM 29.3°F-1.5°C 27.0°F-2.8°C 91% 9.8 mph S15.8 kmh S 15.0 mph24.1 kmh 29.64 in1003.7 mb 0.00 in0.0 mm 0.00 in0.0 mm 0.00 in0.0 mm
07:45 AM 29.3°F-1.5°C 27.0°F-2.8°C 91% 10.5 mph S16.9 kmh S 15.0 mph24.1 kmh 29.64 in1003.7 mb 0.00 in0.0 mm 0.00 in0.0 mm 0.00 in0.0 mm
07:50 AM 29.4°F-1.4°C 27.1°F-2.7°C 91% 9.4 mph S15.1 kmh S 16.0 mph25.7 kmh 29.64 in1003.7 mb 0.00 in0.0 mm 0.00 in0.0 mm 0.00 in0.0 mm
07:55 AM 29.5°F-1.4°C 27.2°F-2.7°C 91% 9.4 mph S15.1 kmh S 16.0 mph25.7 kmh 29.64 in1003.7 mb 0.00 in0.0 mm 0.00 in0.0 mm 0.00 in0.0 mm
08:00 AM 29.6°F-1.3°C 27.3°F-2.6°C 91% 8.7 mph S14.0 kmh S 14.0 mph22.5 kmh 29.64 in1003.7 mb 0.00 in0.0 mm 0.00 in0.0 mm 0.00 in0.0 mm
08:05 AM 29.7°F-1.3°C 27.1°F-2.7°C 90% 7.4 mph S11.9 kmh S 12.0 mph19.3 kmh 29.64 in1003.7 mb 0.00 in0.0 mm 0.00 in0.0 mm 0.00 in0.0 mm
08:10 AM 29.7°F-1.3°C 27.1°F-2.7°C 90% 6.9 mph S11.1 kmh S 11.0 mph17.7 kmh 29.63 in1003.4 mb 0.00 in0.0 mm 0.00 in0.0 mm 0.00 in0.0 mm
08:15 AM 29.7°F-1.3°C 27.1°F-2.7°C 90% 8.3 mph S13.4 kmh S 12.0 mph19.3 kmh 29.63 in1003.4 mb 0.00 in0.0 mm 0.00 in0.0 mm 0.00 in0.0 mm
08:20 AM 29.7°F-1.3°C 27.1°F-2.7°C 90% 8.5 mph S13.7 kmh S 12.0 mph19.3 kmh 29.62 in1003.0 mb 0.00 in0.0 mm 0.00 in0.0 mm 0.00 in0.0 mm
08:25 AM 29.8°F-1.2°C 27.2°F-2.7°C 90% 9.9 mph S15.9 kmh S 15.0 mph24.1 kmh 29.62 in1003.0 mb 0.00 in0.0 mm 0.00 in0.0 mm 0.00 in0.0 mm
08:30 AM 30.0°F-1.1°C 27.4°F-2.6°C 90% 10.0 mph S16.1 kmh S 15.0 mph24.1 kmh 29.61 in1002.7 mb 0.00 in0.0 mm 0.00 in0.0 mm 0.00 in0.0 mm
08:35 AM 30.3°F-0.9°C 27.7°F-2.4°C 90% 11.7 mph S18.8 kmh S 16.0 mph25.7 kmh 29.61 in1002.7 mb 0.00 in0.0 mm 0.00 in0.0 mm 0.00 in0.0 mm
08:40 AM 30.5°F-0.8°C 27.9°F-2.3°C 90% 12.0 mph S19.3 kmh S 18.0 mph29.0 kmh 29.61 in1002.7 mb 0.00 in0.0 mm 0.00 in0.0 mm 0.00 in0.0 mm
08:45 AM 30.5°F-0.8°C 27.9°F-2.3°C 90% 12.0 mph S19.3 kmh S 18.0 mph29.0 kmh 29.61 in1002.7 mb 0.00 in0.0 mm 0.00 in0.0 mm 0.00 in0.0 mm
08:50 AM 30.6°F-0.8°C 28.0°F-2.2°C 90% 11.6 mph S18.7 kmh S 17.0 mph27.4 kmh 29.61 in1002.7 mb 0.00 in0.0 mm 0.00 in0.0 mm 0.00 in0.0 mm
08:55 AM 30.7°F-0.7°C 28.1°F-2.2°C 90% 10.8 mph S17.4 kmh S 16.0 mph25.7 kmh 29.61 in1002.7 mb 0.00 in0.0 mm 0.00 in0.0 mm 0.00 in0.0 mm
09:00 AM 30.8°F-0.7°C 28.2°F-2.1°C 90% 10.0 mph S16.1 kmh S 14.0 mph22.5 kmh 29.61 in1002.7 mb 0.00 in0.0 mm 0.00 in0.0 mm 0.00 in0.0 mm
09:05 AM 31.0°F-0.6°C 28.4°F-2.0°C 90% 10.8 mph S17.4 kmh S 14.0 mph22.5 kmh 29.61 in1002.7 mb 0.00 in0.0 mm 0.00 in0.0 mm 0.00 in0.0 mm
09:10 AM 31.2°F-0.4°C 28.6°F-1.9°C 90% 10.5 mph S16.9 kmh S 14.0 mph22.5 kmh 29.61 in1002.7 mb 0.00 in0.0 mm 0.00 in0.0 mm 0.00 in0.0 mm
09:15 AM 31.4°F-0.3°C 28.8°F-1.8°C 90% 9.8 mph S15.8 kmh S 14.0 mph22.5 kmh 29.61 in1002.7 mb 0.00 in0.0 mm 0.00 in0.0 mm 0.00 in0.0 mm
09:20 AM 31.5°F-0.3°C 28.9°F-1.7°C 90% 9.2 mph SSE14.8 kmh SSE 13.0 mph20.9 kmh 29.61 in1002.7 mb 0.00 in0.0 mm 0.00 in0.0 mm 0.00 in0.0 mm
09:25 AM 31.8°F-0.1°C 29.2°F-1.6°C 90% 8.6 mph S13.8 kmh S 12.0 mph19.3 kmh 29.61 in1002.7 mb 0.00 in0.0 mm 0.00 in0.0 mm 0.00 in0.0 mm
09:30 AM 32.6°F0.3°C 29.7°F-1.3°C 89% 10.1 mph S16.3 kmh S 15.0 mph24.1 kmh 29.61 in1002.7 mb 0.00 in0.0 mm 0.00 in0.0 mm 0.00 in0.0 mm
09:35 AM 33.0°F0.6°C 29.8°F-1.2°C 88% 10.9 mph S17.5 kmh S 16.0 mph25.7 kmh 29.61 in1002.7 mb 0.00 in0.0 mm 0.00 in0.0 mm 0.00 in0.0 mm
09:40 AM 33.3°F0.7°C 30.1°F-1.1°C 88% 11.2 mph S18.0 kmh S 18.0 mph29.0 kmh 29.60 in1002.4 mb 0.00 in0.0 mm 0.00 in0.0 mm 0.00 in0.0 mm
09:45 AM 33.6°F0.9°C 30.2°F-1.0°C 87% 11.7 mph S18.8 kmh S 18.0 mph29.0 kmh 29.60 in1002.4 mb 0.00 in0.0 mm 0.00 in0.0 mm 0.00 in0.0 mm
09:50 AM 33.9°F1.1°C 30.2°F-1.0°C 86% 10.5 mph S16.9 kmh S 18.0 mph29.0 kmh 29.60 in1002.4 mb 0.00 in0.0 mm 0.00 in0.0 mm 0.00 in0.0 mm
09:55 AM 34.0°F1.1°C 30.3°F-0.9°C 86% 10.0 mph S16.1 kmh S 15.0 mph24.1 kmh 29.60 in1002.4 mb 0.00 in0.0 mm 0.00 in0.0 mm 0.00 in0.0 mm
10:00 AM 34.0°F1.1°C 30.3°F-0.9°C 86% 10.5 mph S16.9 kmh S 17.0 mph27.4 kmh 29.60 in1002.4 mb 0.00 in0.0 mm 0.00 in0.0 mm 0.00 in0.0 mm
10:05 AM 34.2°F1.2°C 30.5°F-0.8°C 86% 10.6 mph S17.1 kmh S 17.0 mph27.4 kmh 29.60 in1002.4 mb 0.00 in0.0 mm 0.00 in0.0 mm 0.00 in0.0 mm
10:10 AM 34.5°F1.4°C 30.5°F-0.8°C 85% 12.6 mph S20.3 kmh S 20.0 mph32.2 kmh 29.60 in1002.4 mb 0.00 in0.0 mm 0.00 in0.0 mm 0.00 in0.0 mm
10:15 AM 34.7°F1.5°C 30.4°F-0.9°C 84% 15.5 mph S24.9 kmh S 22.0 mph35.4 kmh 29.59 in1002.0 mb 0.00 in0.0 mm 0.00 in0.0 mm 0.00 in0.0 mm
10:20 AM 34.8°F1.6°C 30.5°F-0.8°C 84% 15.7 mph S25.3 kmh S 24.0 mph38.6 kmh 29.59 in1002.0 mb 0.00 in0.0 mm 0.00 in0.0 mm 0.00 in0.0 mm
10:25 AM 35.0°F1.7°C 30.4°F-0.9°C 83% 15.4 mph S24.8 kmh S 24.0 mph38.6 kmh 29.59 in1002.0 mb 0.00 in0.0 mm 0.00 in0.0 mm 0.00 in0.0 mm
10:30 AM 35.1°F1.7°C 30.5°F-0.8°C 83% 14.6 mph SSW23.5 kmh SSW 21.0 mph33.8 kmh 29.59 in1002.0 mb 0.00 in0.0 mm 0.00 in0.0 mm 0.00 in0.0 mm
10:35 AM 35.2°F1.8°C 30.6°F-0.8°C 83% 14.2 mph SSW22.9 kmh SSW 20.0 mph32.2 kmh 29.59 in1002.0 mb 0.00 in0.0 mm 0.00 in0.0 mm 0.00 in0.0 mm
10:40 AM 35.5°F1.9°C 30.9°F-0.6°C 83% 13.5 mph S21.7 kmh S 20.0 mph32.2 kmh 29.59 in1002.0 mb 0.00 in0.0 mm 0.00 in0.0 mm 0.00 in0.0 mm
10:45 AM 35.6°F2.0°C 30.7°F-0.7°C 82% 13.4 mph SSW21.6 kmh SSW 20.0 mph32.2 kmh 29.60 in1002.4 mb 0.00 in0.0 mm 0.00 in0.0 mm 0.00 in0.0 mm
10:50 AM 35.9°F2.2°C 31.0°F-0.6°C 82% 13.2 mph SSW21.2 kmh SSW 18.0 mph29.0 kmh 29.59 in1002.0 mb 0.00 in0.0 mm 0.00 in0.0 mm 0.00 in0.0 mm
10:55 AM 36.2°F2.3°C 31.2°F-0.4°C 82% 11.2 mph SSW18.0 kmh SSW 16.0 mph25.7 kmh 29.59 in1002.0 mb 0.00 in0.0 mm 0.00 in0.0 mm 0.00 in0.0 mm
11:00 AM 36.5°F2.5°C 31.2°F-0.4°C 81% 12.1 mph SSW19.5 kmh SSW 16.0 mph25.7 kmh 29.59 in1002.0 mb 0.00 in0.0 mm 0.00 in0.0 mm 0.00 in0.0 mm
11:05 AM 37.0°F2.8°C 32.0°F0.0°C 82% 10.2 mph SSW16.4 kmh SSW 16.0 mph25.7 kmh 29.59 in1002.0 mb 0.00 in0.0 mm 0.00 in0.0 mm 0.00 in0.0 mm
11:10 AM 37.2°F2.9°C 31.9°F-0.1°C 81% 10.4 mph SSW16.7 kmh SSW 15.0 mph24.1 kmh 29.59 in1002.0 mb 0.00 in0.0 mm 0.00 in0.0 mm 0.00 in0.0 mm
11:15 AM 37.5°F3.1°C 32.2°F0.1°C 81% 11.0 mph SW17.7 kmh SW 17.0 mph27.4 kmh 29.59 in1002.0 mb 0.00 in0.0 mm 0.00 in0.0 mm 0.00 in0.0 mm
11:20 AM 37.7°F3.2°C 32.1°F0.1°C 80% 7.8 mph SW12.6 kmh SW 17.0 mph27.4 kmh 29.60 in1002.4 mb 0.00 in0.0 mm 0.00 in0.0 mm 0.00 in0.0 mm
11:25 AM 37.8°F3.2°C 32.2°F0.1°C 80% 8.8 mph SW14.2 kmh SW 14.0 mph22.5 kmh 29.59 in1002.0 mb 0.00 in0.0 mm 0.00 in0.0 mm 0.00 in0.0 mm
11:30 AM 37.8°F3.2°C 32.2°F0.1°C 80% 8.0 mph SW12.9 kmh SW 14.0 mph22.5 kmh 29.59 in1002.0 mb 0.00 in0.0 mm 0.00 in0.0 mm 0.00 in0.0 mm
11:35 AM 38.0°F3.3°C 32.4°F0.2°C 80% 8.7 mph SW14.0 kmh SW 14.0 mph22.5 kmh 29.58 in1001.7 mb 0.00 in0.0 mm 0.00 in0.0 mm 0.00 in0.0 mm
11:40 AM 38.2°F3.4°C 32.6°F0.3°C 80% 7.4 mph SSW11.9 kmh SSW 12.0 mph19.3 kmh 29.58 in1001.7 mb 0.00 in0.0 mm 0.00 in0.0 mm 0.00 in0.0 mm
11:45 AM 38.3°F3.5°C 32.4°F0.2°C 79% 8.2 mph SSW13.2 kmh SSW 12.0 mph19.3 kmh 29.58 in1001.7 mb 0.00 in0.0 mm 0.00 in0.0 mm 0.00 in0.0 mm
11:50 AM 38.5°F3.6°C 32.2°F0.1°C 78% 9.0 mph SSW14.5 kmh SSW 13.0 mph20.9 kmh 29.57 in1001.4 mb 0.00 in0.0 mm 0.00 in0.0 mm 0.00 in0.0 mm
11:55 AM 38.8°F3.8°C 32.5°F0.3°C 78% 10.1 mph S16.3 kmh S 14.0 mph22.5 kmh 29.56 in1001.0 mb 0.00 in0.0 mm 0.00 in0.0 mm 0.00 in0.0 mm
12:00 PM 38.8°F3.8°C 32.9°F0.5°C 79% 10.1 mph SSW16.3 kmh SSW 14.0 mph22.5 kmh 29.56 in1001.0 mb 0.00 in0.0 mm 0.00 in0.0 mm 0.00 in0.0 mm
12:05 PM 39.2°F4.0°C 32.9°F0.5°C 78% 10.6 mph S17.1 kmh S 14.0 mph22.5 kmh 29.56 in1001.0 mb 0.00 in0.0 mm 0.00 in0.0 mm 0.00 in0.0 mm
12:10 PM 39.5°F4.2°C 33.2°F0.7°C 78% 9.3 mph SSW15.0 kmh SSW 14.0 mph22.5 kmh 29.55 in1000.7 mb 0.00 in0.0 mm 0.00 in0.0 mm 0.00 in0.0 mm
12:15 PM 39.6°F4.2°C 33.3°F0.7°C 78% 9.7 mph S15.6 kmh S 14.0 mph22.5 kmh 29.55 in1000.7 mb 0.00 in0.0 mm 0.00 in0.0 mm 0.00 in0.0 mm
12:20 PM 40.2°F4.6°C 33.9°F1.1°C 78% 9.8 mph S15.8 kmh S 15.0 mph24.1 kmh 29.55 in1000.7 mb 0.00 in0.0 mm 0.00 in0.0 mm 0.00 in0.0 mm
12:25 PM 40.4°F4.7°C 34.1°F1.2°C 78% 8.9 mph S14.3 kmh S 15.0 mph24.1 kmh 29.55 in1000.7 mb 0.00 in0.0 mm 0.00 in0.0 mm 0.00 in0.0 mm
12:30 PM 41.0°F5.0°C 34.4°F1.3°C 77% 10.5 mph SSW16.9 kmh SSW 15.0 mph24.1 kmh 29.55 in1000.7 mb 0.00 in0.0 mm 0.00 in0.0 mm 0.00 in0.0 mm
12:35 PM 41.4°F5.2°C 34.4°F1.3°C 76% 12.8 mph SSW20.6 kmh SSW 17.0 mph27.4 kmh 29.54 in1000.3 mb 0.00 in0.0 mm 0.00 in0.0 mm 0.00 in0.0 mm
12:40 PM 42.1°F5.6°C 35.1°F1.7°C 76% 12.3 mph SSW19.8 kmh SSW 17.0 mph27.4 kmh 29.55 in1000.7 mb 0.00 in0.0 mm 0.00 in0.0 mm 0.00 in0.0 mm
12:45 PM 42.7°F5.9°C 35.3°F1.8°C 75% 9.5 mph SW15.3 kmh SW 16.0 mph25.7 kmh 29.55 in1000.7 mb 0.00 in0.0 mm 0.00 in0.0 mm 0.00 in0.0 mm
12:50 PM 42.8°F6.0°C 35.8°F2.1°C 76% 6.2 mph SW10.0 kmh SW 15.0 mph24.1 kmh 29.55 in1000.7 mb 0.00 in0.0 mm 0.00 in0.0 mm 0.00 in0.0 mm
12:55 PM 43.1°F6.2°C 36.1°F2.3°C 76% 7.1 mph SW11.4 kmh SW 13.0 mph20.9 kmh 29.55 in1000.7 mb 0.00 in0.0 mm 0.00 in0.0 mm 0.00 in0.0 mm
01:00 PM 43.7°F6.5°C 36.3°F2.4°C 75% 9.2 mph SW14.8 kmh SW 14.0 mph22.5 kmh 29.54 in1000.3 mb 0.00 in0.0 mm 0.00 in0.0 mm 0.00 in0.0 mm
01:05 PM 44.5°F6.9°C 37.1°F2.8°C 75% 8.0 mph SW12.9 kmh SW 14.0 mph22.5 kmh 29.54 in1000.3 mb 0.00 in0.0 mm 0.00 in0.0 mm 0.00 in0.0 mm
01:10 PM 45.4°F7.4°C 37.6°F3.1°C 74% 7.9 mph SW12.7 kmh SW 15.0 mph24.1 kmh 29.54 in1000.3 mb 0.00 in0.0 mm 0.00 in0.0 mm 0.00 in0.0 mm
01:15 PM 45.4°F7.4°C 37.3°F2.9°C 73% 8.8 mph SW14.2 kmh SW 15.0 mph24.1 kmh 29.53 in1000.0 mb 0.00 in0.0 mm 0.00 in0.0 mm 0.00 in0.0 mm
01:20 PM 45.5°F7.5°C 37.4°F3.0°C 73% 6.2 mph WSW10.0 kmh WSW 12.0 mph19.3 kmh 29.53 in1000.0 mb 0.00 in0.0 mm 0.00 in0.0 mm 0.00 in0.0 mm
01:25 PM 46.1°F7.8°C 37.9°F3.3°C 73% 5.8 mph WSW9.3 kmh WSW 11.0 mph17.7 kmh 29.53 in1000.0 mb 0.00 in0.0 mm 0.00 in0.0 mm 0.00 in0.0 mm
01:30 PM 47.1°F8.4°C 37.8°F3.2°C 70% 5.4 mph WSW8.7 kmh WSW 11.0 mph17.7 kmh 29.53 in1000.0 mb 0.00 in0.0 mm 0.00 in0.0 mm 0.00 in0.0 mm
01:35 PM 47.6°F8.7°C 37.6°F3.1°C 68% 5.4 mph WSW8.7 kmh WSW 11.0 mph17.7 kmh 29.53 in1000.0 mb 0.00 in0.0 mm 0.00 in0.0 mm 0.00 in0.0 mm
01:40 PM 47.9°F8.8°C 38.6°F3.7°C 70% 4.3 mph WSW6.9 kmh WSW 11.0 mph17.7 kmh 29.53 in1000.0 mb 0.00 in0.0 mm 0.00 in0.0 mm 0.00 in0.0 mm
01:45 PM 47.9°F8.8°C 37.9°F3.3°C 68% 4.9 mph WSW7.9 kmh WSW 9.0 mph14.5 kmh 29.53 in1000.0 mb 0.00 in0.0 mm 0.00 in0.0 mm 0.00 in0.0 mm
01:50 PM 48.0°F8.9°C 38.3°F3.5°C 69% 3.7 mph WSW6.0 kmh WSW 9.0 mph14.5 kmh 29.53 in1000.0 mb 0.00 in0.0 mm 0.00 in0.0 mm 0.00 in0.0 mm
01:55 PM 48.8°F9.3°C 38.7°F3.7°C 68% 4.0 mph WSW6.4 kmh WSW 11.0 mph17.7 kmh 29.53 in1000.0 mb 0.00 in0.0 mm 0.00 in0.0 mm 0.00 in0.0 mm
02:00 PM 48.1°F8.9°C 37.7°F3.2°C 67% 5.5 mph WSW8.9 kmh WSW 11.0 mph17.7 kmh 29.53 in1000.0 mb 0.00 in0.0 mm 0.00 in0.0 mm 0.00 in0.0 mm
02:05 PM 48.0°F8.9°C 38.0°F3.3°C 68% 4.7 mph WSW7.6 kmh WSW 11.0 mph17.7 kmh 29.54 in1000.3 mb 0.00 in0.0 mm 0.00 in0.0 mm 0.00 in0.0 mm
02:10 PM 48.1°F8.9°C 37.7°F3.2°C 67% 5.4 mph W8.7 kmh W 12.0 mph19.3 kmh 29.54 in1000.3 mb 0.00 in0.0 mm 0.00 in0.0 mm 0.00 in0.0 mm
02:15 PM 48.2°F9.0°C 38.5°F3.6°C 69% 4.2 mph WSW6.8 kmh WSW 13.0 mph20.9 kmh 29.54 in1000.3 mb 0.00 in0.0 mm 0.00 in0.0 mm 0.00 in0.0 mm
02:20 PM 48.3°F9.1°C 38.2°F3.4°C 68% 4.4 mph WSW7.1 kmh WSW 13.0 mph20.9 kmh 29.53 in1000.0 mb 0.00 in0.0 mm 0.00 in0.0 mm 0.00 in0.0 mm
02:25 PM 48.3°F9.1°C 38.2°F3.4°C 68% 3.9 mph WSW6.3 kmh WSW 9.0 mph14.5 kmh 29.54 in1000.3 mb 0.00 in0.0 mm 0.00 in0.0 mm 0.00 in0.0 mm
02:30 PM 48.2°F9.0°C 38.1°F3.4°C 68% 3.1 mph W5.0 kmh W 9.0 mph14.5 kmh 29.54 in1000.3 mb 0.00 in0.0 mm 0.00 in0.0 mm 0.00 in0.0 mm
02:35 PM 47.8°F8.8°C 38.1°F3.4°C 69% 3.3 mph WSW5.3 kmh WSW 7.0 mph11.3 kmh 29.54 in1000.3 mb 0.00 in0.0 mm 0.00 in0.0 mm 0.00 in0.0 mm
02:40 PM 47.6°F8.7°C 38.3°F3.5°C 70% 2.6 mph WSW4.2 kmh WSW 6.0 mph9.7 kmh 29.53 in1000.0 mb 0.00 in0.0 mm 0.00 in0.0 mm 0.00 in0.0 mm
02:45 PM 47.6°F8.7°C 38.3°F3.5°C 70% 2.6 mph WSW4.2 kmh WSW 6.0 mph9.7 kmh 29.54 in1000.3 mb 0.00 in0.0 mm 0.00 in0.0 mm 0.00 in0.0 mm
02:50 PM 47.3°F8.5°C 38.7°F3.7°C 72% 2.7 mph WSW4.3 kmh WSW 6.0 mph9.7 kmh 29.54 in1000.3 mb 0.00 in0.0 mm 0.00 in0.0 mm 0.00 in0.0 mm
02:55 PM 47.3°F8.5°C 38.7°F3.7°C 72% 2.3 mph WSW3.7 kmh WSW 5.0 mph8.0 kmh 29.54 in1000.3 mb 0.00 in0.0 mm 0.00 in0.0 mm 0.00 in0.0 mm
03:00 PM 47.3°F8.5°C 38.7°F3.7°C 72% 2.6 mph W4.2 kmh W 8.0 mph12.9 kmh 29.54 in1000.3 mb 0.00 in0.0 mm 0.00 in0.0 mm 0.00 in0.0 mm
03:05 PM 47.2°F8.4°C 38.6°F3.7°C 72% 2.6 mph WSW4.2 kmh WSW 8.0 mph12.9 kmh 29.54 in1000.3 mb 0.00 in0.0 mm 0.00 in0.0 mm 0.00 in0.0 mm
03:10 PM 46.5°F8.1°C 38.7°F3.7°C 74% 1.3 mph WSW2.1 kmh WSW 4.0 mph6.4 kmh 29.54 in1000.3 mb 0.00 in0.0 mm 0.00 in0.0 mm 0.00 in0.0 mm
03:15 PM 46.1°F7.8°C 38.3°F3.5°C 74% 0.3 mph SW0.5 kmh SW 4.0 mph6.4 kmh 29.55 in1000.7 mb 0.00 in0.0 mm 0.00 in0.0 mm 0.00 in0.0 mm
03:20 PM 45.9°F7.7°C 38.4°F3.6°C 75% 1.3 mph W2.1 kmh W 6.0 mph9.7 kmh 29.55 in1000.7 mb 0.00 in0.0 mm 0.00 in0.0 mm 0.00 in0.0 mm
03:25 PM 45.5°F7.5°C 38.0°F3.3°C 75% 1.0 mph W1.6 kmh W 6.0 mph9.7 kmh 29.56 in1001.0 mb 0.00 in0.0 mm 0.00 in0.0 mm 0.00 in0.0 mm
03:30 PM 45.4°F7.4°C 38.3°F3.5°C 76% 1.1 mph WNW1.8 kmh WNW 4.0 mph6.4 kmh 29.56 in1001.0 mb 0.00 in0.0 mm 0.00 in0.0 mm 0.00 in0.0 mm
03:35 PM 45.3°F7.4°C 38.2°F3.4°C 76% 0.5 mph WSW0.8 kmh WSW 4.0 mph6.4 kmh 29.57 in1001.4 mb 0.00 in0.0 mm 0.00 in0.0 mm 0.00 in0.0 mm
03:40 PM 45.3°F7.4°C 38.2°F3.4°C 76% 0.7 mph WNW1.1 kmh WNW 2.0 mph3.2 kmh 29.57 in1001.4 mb 0.00 in0.0 mm 0.00 in0.0 mm 0.00 in0.0 mm
03:45 PM 45.2°F7.3°C 38.4°F3.6°C 77% 0.5 mph NW0.8 kmh NW 7.0 mph11.3 kmh 29.57 in1001.4 mb 0.00 in0.0 mm 0.00 in0.0 mm 0.00 in0.0 mm
03:50 PM 44.9°F7.2°C 38.1°F3.4°C 77% 0.4 mph NNW0.6 kmh NNW 7.0 mph11.3 kmh 29.57 in1001.4 mb 0.00 in0.0 mm 0.00 in0.0 mm 0.00 in0.0 mm
03:55 PM 44.6°F7.0°C 37.8°F3.2°C 77% 0.4 mph NNW0.6 kmh NNW 2.0 mph3.2 kmh 29.57 in1001.4 mb 0.00 in0.0 mm 0.00 in0.0 mm 0.00 in0.0 mm
04:00 PM 44.4°F6.9°C 38.0°F3.3°C 78% 0.9 mph W1.4 kmh W 4.0 mph6.4 kmh 29.57 in1001.4 mb 0.00 in0.0 mm 0.00 in0.0 mm 0.00 in0.0 mm
04:05 PM 44.2°F6.8°C 37.8°F3.2°C 78% 1.0 mph WSW1.6 kmh WSW 4.0 mph6.4 kmh 29.57 in1001.4 mb 0.00 in0.0 mm 0.00 in0.0 mm 0.00 in0.0 mm
04:10 PM 44.1°F6.7°C 37.7°F3.2°C 78% 1.5 mph W2.4 kmh W 4.0 mph6.4 kmh 29.58 in1001.7 mb 0.00 in0.0 mm 0.00 in0.0 mm 0.00 in0.0 mm
04:15 PM 44.0°F6.7°C 37.6°F3.1°C 78% 1.5 mph W2.4 kmh W 4.0 mph6.4 kmh 29.58 in1001.7 mb 0.00 in0.0 mm 0.00 in0.0 mm 0.00 in0.0 mm
04:20 PM 43.3°F6.3°C 37.2°F2.9°C 79% 0.8 mph W1.3 kmh W 4.0 mph6.4 kmh 29.58 in1001.7 mb 0.00 in0.0 mm 0.00 in0.0 mm 0.00 in0.0 mm
04:25 PM 43.1°F6.2°C 37.4°F3.0°C 80% 1.7 mph W2.7 kmh W 6.0 mph9.7 kmh 29.59 in1002.0 mb 0.00 in0.0 mm 0.00 in0.0 mm 0.00 in0.0 mm
04:30 PM 43.0°F6.1°C 37.3°F2.9°C 80% 2.2 mph W3.5 kmh W 6.0 mph9.7 kmh 29.59 in1002.0 mb 0.00 in0.0 mm 0.00 in0.0 mm 0.00 in0.0 mm
04:35 PM 43.3°F6.3°C 37.6°F3.1°C 80% 2.4 mph WSW3.9 kmh WSW 6.0 mph9.7 kmh 29.59 in1002.0 mb 0.00 in0.0 mm 0.00 in0.0 mm 0.00 in0.0 mm
04:40 PM 43.5°F6.4°C 37.4°F3.0°C 79% 3.2 mph W5.1 kmh W 8.0 mph12.9 kmh 29.59 in1002.0 mb 0.00 in0.0 mm 0.00 in0.0 mm 0.00 in0.0 mm
04:45 PM 42.3°F5.7°C 36.6°F2.6°C 80% 0.9 mph W1.4 kmh W 8.0 mph12.9 kmh 29.60 in1002.4 mb 0.00 in0.0 mm 0.00 in0.0 mm 0.00 in0.0 mm
04:50 PM 41.4°F5.2°C 36.3°F2.4°C 82% 0.1 mph W0.2 kmh W 4.0 mph6.4 kmh 29.60 in1002.4 mb 0.00 in0.0 mm 0.00 in0.0 mm 0.00 in0.0 mm
04:55 PM 40.7°F4.8°C 35.9°F2.2°C 83% 0.3 mph W0.5 kmh W 1.0 mph1.6 kmh 29.61 in1002.7 mb 0.00 in0.0 mm 0.00 in0.0 mm 0.00 in0.0 mm
05:00 PM 40.3°F4.6°C 35.6°F2.0°C 83% 0.3 mph W0.5 kmh W 1.0 mph1.6 kmh 29.61 in1002.7 mb 0.00 in0.0 mm 0.00 in0.0 mm 0.00 in0.0 mm
05:05 PM 40.1°F4.5°C 35.7°F2.1°C 84% 0.4 mph W0.6 kmh W 1.0 mph1.6 kmh 29.60 in1002.4 mb 0.00 in0.0 mm 0.00 in0.0 mm 0.00 in0.0 mm
05:10 PM 40.0°F4.4°C 35.6°F2.0°C 84% 0.1 mph W0.2 kmh W 1.0 mph1.6 kmh 29.61 in1002.7 mb 0.00 in0.0 mm 0.00 in0.0 mm 0.00 in0.0 mm
05:15 PM 39.7°F4.3°C 35.6°F2.0°C 85% 0.2 mph W0.3 kmh W 1.0 mph1.6 kmh 29.61 in1002.7 mb 0.00 in0.0 mm 0.00 in0.0 mm 0.00 in0.0 mm
05:20 PM 39.5°F4.2°C 35.4°F1.9°C 85% 0.4 mph W0.6 kmh W 2.0 mph3.2 kmh 29.61 in1002.7 mb 0.00 in0.0 mm 0.00 in0.0 mm 0.00 in0.0 mm
05:25 PM 39.2°F4.0°C 35.4°F1.9°C 86% 0.4 mph W0.6 kmh W 2.0 mph3.2 kmh 29.61 in1002.7 mb 0.00 in0.0 mm 0.00 in0.0 mm 0.00 in0.0 mm
05:30 PM 39.2°F4.0°C 35.4°F1.9°C 86% 0.7 mph W1.1 kmh W 3.0 mph4.8 kmh 29.61 in1002.7 mb 0.00 in0.0 mm 0.00 in0.0 mm 0.00 in0.0 mm
05:35 PM 38.9°F3.8°C 35.1°F1.7°C 86% 0.9 mph W1.4 kmh W 3.0 mph4.8 kmh 29.61 in1002.7 mb 0.00 in0.0 mm 0.00 in0.0 mm 0.00 in0.0 mm
05:40 PM 39.2°F4.0°C 35.4°F1.9°C 86% 1.8 mph W2.9 kmh W 4.0 mph6.4 kmh 29.61 in1002.7 mb 0.00 in0.0 mm 0.00 in0.0 mm 0.00 in0.0 mm
05:45 PM 39.1°F3.9°C 35.0°F1.7°C 85% 1.5 mph W2.4 kmh W 6.0 mph9.7 kmh 29.62 in1003.0 mb 0.00 in0.0 mm 0.00 in0.0 mm 0.00 in0.0 mm
05:50 PM 39.2°F4.0°C 35.4°F1.9°C 86% 1.9 mph W3.1 kmh W 6.0 mph9.7 kmh 29.62 in1003.0 mb 0.00 in0.0 mm 0.00 in0.0 mm 0.00 in0.0 mm
05:55 PM 38.7°F3.7°C 34.6°F1.4°C 85% 1.2 mph W1.9 kmh W 4.0 mph6.4 kmh 29.63 in1003.4 mb 0.00 in0.0 mm 0.00 in0.0 mm 0.00 in0.0 mm
06:00 PM 37.8°F3.2°C 33.7°F0.9°C 85% 0.9 mph W1.4 kmh W 3.0 mph4.8 kmh 29.64 in1003.7 mb 0.00 in0.0 mm 0.00 in0.0 mm 0.00 in0.0 mm
06:05 PM 37.0°F2.8°C 33.2°F0.7°C 86% 1.0 mph W1.6 kmh W 2.0 mph3.2 kmh 29.64 in1003.7 mb 0.00 in0.0 mm 0.00 in0.0 mm 0.00 in0.0 mm
06:10 PM 36.4°F2.4°C 33.2°F0.7°C 88% 0.7 mph W1.1 kmh W 2.0 mph3.2 kmh 29.65 in1004.1 mb 0.00 in0.0 mm 0.00 in0.0 mm 0.00 in0.0 mm
06:15 PM 36.2°F2.3°C 33.0°F0.6°C 88% 1.1 mph WNW1.8 kmh WNW 3.0 mph4.8 kmh 29.65 in1004.1 mb 0.00 in0.0 mm 0.00 in0.0 mm 0.00 in0.0 mm
06:20 PM 36.0°F2.2°C 33.1°F0.6°C 89% 0.6 mph WNW1.0 kmh WNW 3.0 mph4.8 kmh 29.65 in1004.1 mb 0.00 in0.0 mm 0.00 in0.0 mm 0.00 in0.0 mm
06:25 PM 35.8°F2.1°C 32.9°F0.5°C 89% 0.2 mph WNW0.3 kmh WNW 2.0 mph3.2 kmh 29.65 in1004.1 mb 0.00 in0.0 mm 0.00 in0.0 mm 0.00 in0.0 mm
06:30 PM 35.5°F1.9°C 32.6°F0.3°C 89% 0.5 mph WNW0.8 kmh WNW 2.0 mph3.2 kmh 29.65 in1004.1 mb 0.00 in0.0 mm 0.00 in0.0 mm 0.00 in0.0 mm
06:35 PM 35.3°F1.8°C 32.7°F0.4°C 90% 1.5 mph WNW2.4 kmh WNW 3.0 mph4.8 kmh 29.65 in1004.1 mb 0.00 in0.0 mm 0.00 in0.0 mm 0.00 in0.0 mm
06:40 PM 35.2°F1.8°C 32.6°F0.3°C 90% 0.6 mph NW1.0 kmh NW 3.0 mph4.8 kmh 29.65 in1004.1 mb 0.00 in0.0 mm 0.00 in0.0 mm 0.00 in0.0 mm
06:45 PM 35.1°F1.7°C 32.5°F0.3°C 90% 1.0 mph NW1.6 kmh NW 2.0 mph3.2 kmh 29.66 in1004.4 mb 0.00 in0.0 mm 0.00 in0.0 mm 0.00 in0.0 mm
06:50 PM 35.0°F1.7°C 32.6°F0.3°C 91% 1.0 mph NW1.6 kmh NW 2.0 mph3.2 kmh 29.66 in1004.4 mb 0.00 in0.0 mm 0.00 in0.0 mm 0.00 in0.0 mm
06:55 PM 35.0°F1.7°C 32.6°F0.3°C 91% 0.7 mph NW1.1 kmh NW 2.0 mph3.2 kmh 29.66 in1004.4 mb 0.00 in0.0 mm 0.00 in0.0 mm 0.00 in0.0 mm
07:00 PM 35.2°F1.8°C 32.8°F0.4°C 91% 0.7 mph NW1.1 kmh NW 2.0 mph3.2 kmh 29.66 in1004.4 mb 0.00 in0.0 mm 0.00 in0.0 mm 0.00 in0.0 mm
07:05 PM 35.3°F1.8°C 32.9°F0.5°C 91% 1.3 mph NW2.1 kmh NW 3.0 mph4.8 kmh 29.66 in1004.4 mb 0.00 in0.0 mm 0.00 in0.0 mm 0.00 in0.0 mm
07:10 PM 35.3°F1.8°C 32.9°F0.5°C 91% 0.9 mph NW1.4 kmh NW 3.0 mph4.8 kmh 29.65 in1004.1 mb 0.00 in0.0 mm 0.00 in0.0 mm 0.00 in0.0 mm
07:15 PM 35.3°F1.8°C 32.9°F0.5°C 91% 1.3 mph WNW2.1 kmh WNW 3.0 mph4.8 kmh 29.65 in1004.1 mb 0.00 in0.0 mm 0.00 in0.0 mm 0.00 in0.0 mm
07:20 PM 35.3°F1.8°C 32.9°F0.5°C 91% 1.4 mph WNW2.3 kmh WNW 3.0 mph4.8 kmh 29.66 in1004.4 mb 0.00 in0.0 mm 0.00 in0.0 mm 0.00 in0.0 mm
07:25 PM 35.4°F1.9°C 33.0°F0.6°C 91% 0.9 mph WNW1.4 kmh WNW 3.0 mph4.8 kmh 29.66 in1004.4 mb 0.00 in0.0 mm 0.00 in0.0 mm 0.00 in0.0 mm
07:30 PM 35.5°F1.9°C 33.1°F0.6°C 91% 1.2 mph WNW1.9 kmh WNW 3.0 mph4.8 kmh 29.66 in1004.4 mb 0.00 in0.0 mm 0.00 in0.0 mm 0.00 in0.0 mm
07:35 PM 35.6°F2.0°C 33.5°F0.8°C 92% 2.2 mph WNW3.5 kmh WNW 4.0 mph6.4 kmh 29.66 in1004.4 mb 0.00 in0.0 mm 0.00 in0.0 mm 0.00 in0.0 mm
07:40 PM 35.6°F2.0°C 33.2°F0.7°C 91% 1.5 mph WNW2.4 kmh WNW 4.0 mph6.4 kmh 29.66 in1004.4 mb 0.00 in0.0 mm 0.00 in0.0 mm 0.00 in0.0 mm
07:45 PM 35.6°F2.0°C 33.2°F0.7°C 91% 1.9 mph WNW3.1 kmh WNW 4.0 mph6.4 kmh 29.67 in1004.7 mb 0.00 in0.0 mm 0.00 in0.0 mm 0.00 in0.0 mm
07:50 PM 35.7°F2.1°C 33.3°F0.7°C 91% 2.7 mph WNW4.3 kmh WNW 7.0 mph11.3 kmh 29.67 in1004.7 mb 0.00 in0.0 mm 0.00 in0.0 mm 0.00 in0.0 mm
07:55 PM 35.9°F2.2°C 33.5°F0.8°C 91% 3.1 mph WNW5.0 kmh WNW 7.0 mph11.3 kmh 29.67 in1004.7 mb 0.00 in0.0 mm 0.00 in0.0 mm 0.00 in0.0 mm
08:00 PM 36.1°F2.3°C 33.7°F0.9°C 91% 2.0 mph W3.2 kmh W 7.0 mph11.3 kmh 29.68 in1005.1 mb 0.00 in0.0 mm 0.00 in0.0 mm 0.00 in0.0 mm
08:05 PM 36.1°F2.3°C 33.7°F0.9°C 91% 2.1 mph WNW3.4 kmh WNW 4.0 mph6.4 kmh 29.68 in1005.1 mb 0.00 in0.0 mm 0.00 in0.0 mm 0.00 in0.0 mm
08:10 PM 36.4°F2.4°C 34.0°F1.1°C 91% 5.0 mph WNW8.0 kmh WNW 8.0 mph12.9 kmh 29.68 in1005.1 mb 0.00 in0.0 mm 0.00 in0.0 mm 0.00 in0.0 mm
08:15 PM 36.7°F2.6°C 34.3°F1.3°C 91% 4.2 mph WNW6.8 kmh WNW 8.0 mph12.9 kmh 29.69 in1005.4 mb 0.00 in0.0 mm 0.00 in0.0 mm 0.00 in0.0 mm
08:20 PM 36.9°F2.7°C 34.5°F1.4°C 91% 4.0 mph WNW6.4 kmh WNW 8.0 mph12.9 kmh 29.70 in1005.8 mb 0.00 in0.0 mm 0.00 in0.0 mm 0.00 in0.0 mm
08:25 PM 37.0°F2.8°C 34.3°F1.3°C 90% 4.3 mph WNW6.9 kmh WNW 9.0 mph14.5 kmh 29.70 in1005.8 mb 0.00 in0.0 mm 0.00 in0.0 mm 0.00 in0.0 mm
08:30 PM 37.4°F3.0°C 34.7°F1.5°C 90% 5.2 mph WNW8.4 kmh WNW 11.0 mph17.7 kmh 29.70 in1005.8 mb 0.00 in0.0 mm 0.00 in0.0 mm 0.00 in0.0 mm
08:35 PM 37.6°F3.1°C 34.7°F1.5°C 89% 4.5 mph WNW7.2 kmh WNW 11.0 mph17.7 kmh 29.70 in1005.8 mb 0.00 in0.0 mm 0.00 in0.0 mm 0.00 in0.0 mm
08:40 PM 37.8°F3.2°C 34.6°F1.4°C 88% 4.5 mph WNW7.2 kmh WNW 8.0 mph12.9 kmh 29.70 in1005.8 mb 0.00 in0.0 mm 0.00 in0.0 mm 0.00 in0.0 mm
08:45 PM 37.8°F3.2°C 34.3°F1.3°C 87% 4.0 mph WNW6.4 kmh WNW 8.0 mph12.9 kmh 29.70 in1005.8 mb 0.00 in0.0 mm 0.00 in0.0 mm 0.00 in0.0 mm
08:50 PM 37.9°F3.3°C 34.4°F1.3°C 87% 3.8 mph WNW6.1 kmh WNW 8.0 mph12.9 kmh 29.70 in1005.8 mb 0.00 in0.0 mm 0.00 in0.0 mm 0.00 in0.0 mm
08:55 PM 37.7°F3.2°C 33.9°F1.1°C 86% 2.4 mph WNW3.9 kmh WNW 8.0 mph12.9 kmh 29.70 in1005.8 mb 0.00 in0.0 mm 0.00 in0.0 mm 0.00 in0.0 mm
09:00 PM 37.5°F3.1°C 33.7°F0.9°C 86% 2.0 mph NW3.2 kmh NW 7.0 mph11.3 kmh 29.71 in1006.1 mb 0.00 in0.0 mm 0.00 in0.0 mm 0.00 in0.0 mm
09:05 PM 37.1°F2.8°C 33.3°F0.7°C 86% 2.2 mph WNW3.5 kmh WNW 5.0 mph8.0 kmh 29.71 in1006.1 mb 0.00 in0.0 mm 0.00 in0.0 mm 0.00 in0.0 mm
09:10 PM 36.7°F2.6°C 32.9°F0.5°C 86% 3.6 mph WNW5.8 kmh WNW 8.0 mph12.9 kmh 29.71 in1006.1 mb 0.00 in0.0 mm 0.00 in0.0 mm 0.00 in0.0 mm
09:15 PM 36.6°F2.6°C 33.1°F0.6°C 87% 3.5 mph WNW5.6 kmh WNW 8.0 mph12.9 kmh 29.71 in1006.1 mb 0.00 in0.0 mm 0.00 in0.0 mm 0.00 in0.0 mm
09:20 PM 36.6°F2.6°C 33.1°F0.6°C 87% 3.2 mph WNW5.1 kmh WNW 8.0 mph12.9 kmh 29.71 in1006.1 mb 0.00 in0.0 mm 0.00 in0.0 mm 0.00 in0.0 mm
09:25 PM 36.6°F2.6°C 33.1°F0.6°C 87% 3.6 mph WNW5.8 kmh WNW 7.0 mph11.3 kmh 29.71 in1006.1 mb 0.00 in0.0 mm 0.00 in0.0 mm 0.00 in0.0 mm
09:30 PM 36.5°F2.5°C 33.0°F0.6°C 87% 2.5 mph WNW4.0 kmh WNW 7.0 mph11.3 kmh 29.71 in1006.1 mb 0.00 in0.0 mm 0.00 in0.0 mm 0.00 in0.0 mm
09:35 PM 36.5°F2.5°C 33.0°F0.6°C 87% 3.1 mph NW5.0 kmh NW 7.0 mph11.3 kmh 29.72 in1006.4 mb 0.00 in0.0 mm 0.00 in0.0 mm 0.00 in0.0 mm
09:40 PM 36.5°F2.5°C 33.0°F0.6°C 87% 5.3 mph NW8.5 kmh NW 8.0 mph12.9 kmh 29.72 in1006.4 mb 0.00 in0.0 mm 0.00 in0.0 mm 0.00 in0.0 mm
09:45 PM 36.3°F2.4°C 32.8°F0.4°C 87% 6.3 mph NW10.1 kmh NW 8.0 mph12.9 kmh 29.72 in1006.4 mb 0.00 in0.0 mm 0.00 in0.0 mm 0.00 in0.0 mm
09:50 PM 36.1°F2.3°C 32.6°F0.3°C 87% 5.6 mph NW9.0 kmh NW 8.0 mph12.9 kmh 29.72 in1006.4 mb 0.00 in0.0 mm 0.00 in0.0 mm 0.00 in0.0 mm
09:55 PM 36.0°F2.2°C 32.5°F0.3°C 87% 4.5 mph NW7.2 kmh NW 8.0 mph12.9 kmh 29.73 in1006.8 mb 0.00 in0.0 mm 0.00 in0.0 mm 0.00 in0.0 mm
10:00 PM 36.0°F2.2°C 32.5°F0.3°C 87% 2.9 mph NW4.7 kmh NW 7.0 mph11.3 kmh 29.72 in1006.4 mb 0.00 in0.0 mm 0.00 in0.0 mm 0.00 in0.0 mm
10:05 PM 35.9°F2.2°C 32.4°F0.2°C 87% 2.0 mph WNW3.2 kmh WNW 7.0 mph11.3 kmh 29.72 in1006.4 mb 0.00 in0.0 mm 0.00 in0.0 mm 0.00 in0.0 mm
10:10 PM 35.9°F2.2°C 32.4°F0.2°C 87% 1.9 mph NW3.1 kmh NW 4.0 mph6.4 kmh 29.72 in1006.4 mb 0.00 in0.0 mm 0.00 in0.0 mm 0.00 in0.0 mm
10:15 PM 35.7°F2.1°C 32.2°F0.1°C 87% 1.6 mph WNW2.6 kmh WNW 4.0 mph6.4 kmh 29.73 in1006.8 mb 0.00 in0.0 mm 0.00 in0.0 mm 0.00 in0.0 mm
10:20 PM 35.5°F1.9°C 32.0°F0.0°C 87% 1.3 mph NW2.1 kmh NW 3.0 mph4.8 kmh 29.73 in1006.8 mb 0.00 in0.0 mm 0.00 in0.0 mm 0.00 in0.0 mm
10:25 PM 35.2°F1.8°C 31.7°F-0.2°C 87% 1.0 mph NW1.6 kmh NW 3.0 mph4.8 kmh 29.73 in1006.8 mb 0.00 in0.0 mm 0.00 in0.0 mm 0.00 in0.0 mm
10:30 PM 35.0°F1.7°C 31.5°F-0.3°C 87% 1.2 mph NW1.9 kmh NW 4.0 mph6.4 kmh 29.73 in1006.8 mb 0.00 in0.0 mm 0.00 in0.0 mm 0.00 in0.0 mm
10:35 PM 34.8°F1.6°C 31.3°F-0.4°C 87% 0.9 mph NW1.4 kmh NW 4.0 mph6.4 kmh 29.73 in1006.8 mb 0.00 in0.0 mm 0.00 in0.0 mm 0.00 in0.0 mm
10:40 PM 34.7°F1.5°C 31.5°F-0.3°C 88% 1.0 mph W1.6 kmh W 3.0 mph4.8 kmh 29.73 in1006.8 mb 0.00 in0.0 mm 0.00 in0.0 mm 0.00 in0.0 mm
10:45 PM 34.5°F1.4°C 31.3°F-0.4°C 88% 0.7 mph WNW1.1 kmh WNW 3.0 mph4.8 kmh 29.74 in1007.1 mb 0.00 in0.0 mm 0.00 in0.0 mm 0.00 in0.0 mm
10:50 PM 34.4°F1.3°C 31.5°F-0.3°C 89% 0.5 mph WNW0.8 kmh WNW 2.0 mph3.2 kmh 29.74 in1007.1 mb 0.00 in0.0 mm 0.00 in0.0 mm 0.00 in0.0 mm
10:55 PM 34.4°F1.3°C 31.5°F-0.3°C 89% 0.3 mph WNW0.5 kmh WNW 1.0 mph1.6 kmh 29.74 in1007.1 mb 0.00 in0.0 mm 0.00 in0.0 mm 0.00 in0.0 mm
11:00 PM 34.2°F1.2°C 31.3°F-0.4°C 89% 1.0 mph WNW1.6 kmh WNW 2.0 mph3.2 kmh 29.75 in1007.5 mb 0.00 in0.0 mm 0.00 in0.0 mm 0.00 in0.0 mm
11:05 PM 34.2°F1.2°C 31.3°F-0.4°C 89% 1.1 mph WNW1.8 kmh WNW 2.0 mph3.2 kmh 29.75 in1007.5 mb 0.00 in0.0 mm 0.00 in0.0 mm 0.00 in0.0 mm
11:10 PM 34.2°F1.2°C 31.3°F-0.4°C 89% 0.6 mph WNW1.0 kmh WNW 2.0 mph3.2 kmh 29.75 in1007.5 mb 0.00 in0.0 mm 0.00 in0.0 mm 0.00 in0.0 mm
11:15 PM 34.1°F1.2°C 31.5°F-0.3°C 90% 0.5 mph WNW0.8 kmh WNW 2.0 mph3.2 kmh 29.75 in1007.5 mb 0.00 in0.0 mm 0.00 in0.0 mm 0.00 in0.0 mm
11:20 PM 34.0°F1.1°C 31.4°F-0.3°C 90% 0.9 mph WNW1.4 kmh WNW 3.0 mph4.8 kmh 29.76 in1007.8 mb 0.00 in0.0 mm 0.00 in0.0 mm 0.00 in0.0 mm
11:25 PM 33.8°F1.0°C 31.2°F-0.4°C 90% 1.6 mph WNW2.6 kmh WNW 3.0 mph4.8 kmh 29.76 in1007.8 mb 0.00 in0.0 mm 0.00 in0.0 mm 0.00 in0.0 mm
11:30 PM 33.7°F0.9°C 31.1°F-0.5°C 90% 1.5 mph WNW2.4 kmh WNW 4.0 mph6.4 kmh 29.77 in1008.1 mb 0.00 in0.0 mm 0.00 in0.0 mm 0.00 in0.0 mm
11:35 PM 33.5°F0.8°C 30.9°F-0.6°C 90% 1.6 mph WNW2.6 kmh WNW 4.0 mph6.4 kmh 29.77 in1008.1 mb 0.00 in0.0 mm 0.00 in0.0 mm 0.00 in0.0 mm
11:40 PM 33.4°F0.8°C 30.8°F-0.7°C 90% 1.7 mph W2.7 kmh W 4.0 mph6.4 kmh 29.77 in1008.1 mb 0.00 in0.0 mm 0.00 in0.0 mm 0.00 in0.0 mm
11:45 PM 33.3°F0.7°C 30.7°F-0.7°C 90% 2.4 mph WNW3.9 kmh WNW 4.0 mph6.4 kmh 29.77 in1008.1 mb 0.00 in0.0 mm 0.00 in0.0 mm 0.00 in0.0 mm
11:50 PM 33.4°F0.8°C 31.1°F-0.5°C 91% 3.6 mph WNW5.8 kmh WNW 8.0 mph12.9 kmh 29.77 in1008.1 mb 0.00 in0.0 mm 0.00 in0.0 mm 0.00 in0.0 mm
11:55 PM 33.9°F1.1°C 31.6°F-0.2°C 91% 6.7 mph WNW10.8 kmh WNW 11.0 mph17.7 kmh 29.77 in1008.1 mb 0.00 in0.0 mm 0.00 in0.0 mm 0.00 in0.0 mm